Time;durP1;ratioP1;P1;durP2;ratioP2;P2;SDS_P1;SDS_P2;PMS_P1;PMS_P2;Temp;Humidity;BMP_temperature;BMP_pressure;BME280_temperature;BME280_humidity;BME280_pressure;Samples;Min_cycle;Max_cycle;Signal;HPM_P1;HPM_P2
2022/08/13 00:01:36;;;;;;;5.20;4.30;;;;;;;;;;5073006;28;20432;-82
2022/08/13 00:04:05;;;;;;;4.68;4.20;;;;;;;;;;5070041;28;21068;-83
2022/08/13 00:09:16;;;;;;;6.10;4.70;;;;;;;;;;5068574;28;20436;-81
2022/08/13 00:14:31;;;;;;;4.22;3.92;;;;;;;;;;5068410;28;20465;-80
2022/08/13 00:16:58;;;;;;;5.03;4.00;;;;;;;;;;5066513;28;20429;-82
2022/08/13 00:19:26;;;;;;;4.97;4.47;;;;;;;;;;5068726;28;20426;-80
2022/08/13 00:21:53;;;;;;;4.55;4.15;;;;;;;;;;5067077;28;20455;-80
2022/08/13 00:24:19;;;;;;;4.25;3.85;;;;;;;;;;5069785;28;20428;-80
2022/08/13 00:26:46;;;;;;;4.35;3.95;;;;;;;;;;5067957;28;21041;-81
2022/08/13 00:29:13;;;;;;;4.35;3.90;;;;;;;;;;5068893;28;20439;-83
2022/08/13 00:31:39;;;;;;;4.73;3.70;;;;;;;;;;5071469;28;20913;-81
2022/08/13 00:34:06;;;;;;;6.40;4.30;;;;;;;;;;5070959;28;20442;-82
2022/08/13 00:36:34;;;;;;;4.55;4.03;;;;;;;;;;5069786;28;20426;-81
2022/08/13 00:39:00;;;;;;;4.27;3.87;;;;;;;;;;5068846;28;20453;-84
2022/08/13 00:41:39;;;;;;;6.90;4.10;;;;;;;;;;5072293;28;20429;-81
2022/08/13 00:44:06;;;;;;;6.40;4.20;;;;;;;;;;5070137;28;20421;-80
2022/08/13 00:46:33;;;;;;;5.13;4.28;;;;;;;;;;5070830;28;20436;-82
2022/08/13 00:48:58;;;;;;;4.85;3.97;;;;;;;;;;5069935;28;20427;-80
2022/08/13 00:51:26;;;;;;;4.50;4.10;;;;;;;;;;5070297;28;20961;-83
2022/08/13 00:53:54;;;;;;;4.40;4.07;;;;;;;;;;5070855;28;20455;-82
2022/08/13 00:56:22;;;;;;;4.32;3.70;;;;;;;;;;5070668;28;20415;-85
2022/08/13 00:58:49;;;;;;;5.78;4.00;;;;;;;;;;5069026;28;20485;-82
2022/08/13 01:01:16;;;;;;;4.27;3.87;;;;;;;;;;5067729;28;20440;-80
2022/08/13 01:03:43;;;;;;;4.67;4.27;;;;;;;;;;5070836;28;20427;-85
2022/08/13 01:06:10;;;;;;;5.47;4.25;;;;;;;;;;5069274;28;20912;-81
2022/08/13 01:08:40;;;;;;;4.82;4.40;;;;;;;;;;5067252;28;20521;-80
2022/08/13 01:11:12;;;;;;;4.35;4.05;;;;;;;;;;5068201;28;20416;-81
2022/08/13 01:13:40;;;;;;;4.72;4.30;;;;;;;;;;5068923;28;20425;-80
2022/08/13 01:16:08;;;;;;;5.57;3.90;;;;;;;;;;5069025;28;20428;-84
2022/08/13 01:18:36;;;;;;;4.70;4.30;;;;;;;;;;5071747;28;20515;-82
2022/08/13 01:21:08;;;;;;;6.32;4.57;;;;;;;;;;5069514;28;20418;-82
2022/08/13 01:23:36;;;;;;;5.03;3.80;;;;;;;;;;5068348;28;20448;-83
2022/08/13 01:26:02;;;;;;;5.03;3.83;;;;;;;;;;5068275;28;20436;-84
2022/08/13 01:28:29;;;;;;;4.25;3.80;;;;;;;;;;5069150;28;20436;-81
2022/08/13 01:30:57;;;;;;;4.90;4.33;;;;;;;;;;5066001;28;20776;-80
2022/08/13 01:33:23;;;;;;;4.68;4.28;;;;;;;;;;5069678;28;20439;-82
2022/08/13 01:35:51;;;;;;;4.57;4.00;;;;;;;;;;5070807;28;20432;-84
2022/08/13 01:38:19;;;;;;;4.28;3.88;;;;;;;;;;5069229;28;20436;-84
2022/08/13 01:40:48;;;;;;;5.03;4.00;;;;;;;;;;5069182;28;20446;-83
2022/08/13 01:43:15;;;;;;;4.97;4.35;;;;;;;;;;5070465;28;20437;-83
2022/08/13 01:45:43;;;;;;;4.30;3.90;;;;;;;;;;5071121;28;20442;-81
2022/08/13 01:50:54;;;;;;;4.95;4.30;;;;;;;;;;5068458;28;20436;-80
2022/08/13 01:53:21;;;;;;;4.87;4.40;;;;;;;;;;5064645;28;20444;-82
2022/08/13 01:55:54;;;;;;;4.97;4.57;;;;;;;;;;5067744;28;20853;-80
2022/08/13 01:58:22;;;;;;;4.40;4.00;;;;;;;;;;5067050;28;20464;-82
2022/08/13 02:00:50;;;;;;;4.32;3.80;;;;;;;;;;5069763;28;20452;-82
2022/08/13 02:03:19;;;;;;;4.47;4.07;;;;;;;;;;5065780;28;20460;-80
2022/08/13 02:05:47;;;;;;;4.70;4.30;;;;;;;;;;5067196;28;20957;-82
2022/08/13 02:08:14;;;;;;;4.00;3.70;;;;;;;;;;5066384;28;20447;-82
2022/08/13 02:10:42;;;;;;;4.27;3.83;;;;;;;;;;5066848;28;21027;-82
2022/08/13 02:13:13;;;;;;;5.00;4.13;;;;;;;;;;5067486;28;20429;-87
2022/08/13 02:15:40;;;;;;;4.40;3.90;;;;;;;;;;5066272;28;20431;-81
2022/08/13 02:18:07;;;;;;;4.53;4.13;;;;;;;;;;5068062;28;20444;-80
2022/08/13 02:20:34;;;;;;;4.72;4.18;;;;;;;;;;5069984;28;20493;-80
2022/08/13 02:23:01;;;;;;;8.27;4.20;;;;;;;;;;5066769;28;20427;-81
2022/08/13 02:25:28;;;;;;;6.25;4.20;;;;;;;;;;5068225;28;20522;-81
2022/08/13 02:27:55;;;;;;;5.10;4.00;;;;;;;;;;5070023;28;20785;-81
2022/08/13 02:30:26;;;;;;;4.70;3.92;;;;;;;;;;5070160;28;20928;-80
2022/08/13 02:32:53;;;;;;;4.50;4.10;;;;;;;;;;5070551;28;20562;-81
2022/08/13 02:35:21;;;;;;;6.38;4.13;;;;;;;;;;5068743;28;20436;-83
2022/08/13 02:37:48;;;;;;;6.47;4.30;;;;;;;;;;5070933;28;20482;-83
2022/08/13 02:42:55;;;;;;;6.15;4.30;;;;;;;;;;5069150;28;20424;-81
2022/08/13 02:45:24;;;;;;;4.47;4.07;;;;;;;;;;5068247;28;20478;-81
2022/08/13 02:47:51;;;;;;;5.78;4.13;;;;;;;;;;5064557;28;20435;-82
2022/08/13 02:50:18;;;;;;;4.53;4.07;;;;;;;;;;5065323;28;20500;-82
2022/08/13 02:52:45;;;;;;;4.53;4.13;;;;;;;;;;5067205;28;20429;-81
2022/08/13 02:55:11;;;;;;;4.93;4.00;;;;;;;;;;5065272;28;20425;-81
2022/08/13 02:57:38;;;;;;;4.97;4.50;;;;;;;;;;5067483;28;20428;-82
2022/08/13 03:00:05;;;;;;;5.22;4.00;;;;;;;;;;5066863;28;20439;-81
2022/08/13 03:02:33;;;;;;;6.85;4.50;;;;;;;;;;5068289;28;20426;-81
2022/08/13 03:05:01;;;;;;;4.40;3.95;;;;;;;;;;5064738;28;21023;-82
2022/08/13 03:07:29;;;;;;;6.90;4.20;;;;;;;;;;5067521;28;20985;-83
2022/08/13 03:09:55;;;;;;;4.72;4.32;;;;;;;;;;5066144;28;20862;-83
2022/08/13 03:12:22;;;;;;;4.00;3.67;;;;;;;;;;5064829;28;20434;-85
2022/08/13 03:14:50;;;;;;;4.18;3.85;;;;;;;;;;5069414;28;20424;-84
2022/08/13 03:17:16;;;;;;;6.67;4.20;;;;;;;;;;5071098;28;20820;-85
2022/08/13 03:19:44;;;;;;;5.63;4.90;;;;;;;;;;5071261;28;20420;-83
2022/08/13 03:22:10;;;;;;;4.72;4.32;;;;;;;;;;5072073;28;20444;-85
2022/08/13 03:24:37;;;;;;;5.05;4.35;;;;;;;;;;5071622;28;20432;-85
2022/08/13 03:27:03;;;;;;;4.43;3.85;;;;;;;;;;5069198;28;20595;-83
2022/08/13 03:29:30;;;;;;;4.93;3.90;;;;;;;;;;5072516;28;20417;-85
2022/08/13 03:31:57;;;;;;;5.60;4.00;;;;;;;;;;5071640;28;20420;-86
2022/08/13 03:34:28;;;;;;;5.65;4.35;;;;;;;;;;5072530;28;20424;-83
2022/08/13 03:36:55;;;;;;;5.88;4.22;;;;;;;;;;5071166;28;20490;-82
2022/08/13 03:39:22;;;;;;;4.80;4.30;;;;;;;;;;5071082;28;20928;-81
2022/08/13 03:41:48;;;;;;;6.65;4.70;;;;;;;;;;5070378;28;20431;-84
2022/08/13 03:44:15;;;;;;;5.03;4.40;;;;;;;;;;5067997;28;20409;-83
2022/08/13 03:46:45;;;;;;;5.80;5.00;;;;;;;;;;5067568;28;20407;-82
2022/08/13 03:49:12;;;;;;;5.93;4.13;;;;;;;;;;5069316;28;20500;-81
2022/08/13 03:51:39;;;;;;;6.20;4.70;;;;;;;;;;5069722;28;20431;-81
2022/08/13 03:54:07;;;;;;;5.10;4.15;;;;;;;;;;5068771;28;20794;-84
2022/08/13 03:56:34;;;;;;;5.10;4.60;;;;;;;;;;5067841;28;20438;-84
2022/08/13 03:59:02;;;;;;;4.68;4.28;;;;;;;;;;5071382;28;20453;-83
2022/08/13 04:01:28;;;;;;;5.70;4.50;;;;;;;;;;5071513;28;20516;-81
2022/08/13 04:03:54;;;;;;;5.65;5.00;;;;;;;;;;5070167;28;20435;-83
2022/08/13 04:06:22;;;;;;;6.30;4.30;;;;;;;;;;5071906;28;20411;-81
2022/08/13 04:08:50;;;;;;;6.28;4.20;;;;;;;;;;5071636;28;20477;-83
2022/08/13 04:11:18;;;;;;;5.22;4.72;;;;;;;;;;5071163;28;20425;-82
2022/08/13 04:13:45;;;;;;;4.68;4.25;;;;;;;;;;5073127;28;20805;-81
2022/08/13 04:16:13;;;;;;;5.30;4.80;;;;;;;;;;5070375;28;20920;-83
2022/08/13 04:18:42;;;;;;;6.45;4.65;;;;;;;;;;5069307;28;20437;-81
2022/08/13 04:21:11;;;;;;;5.20;4.65;;;;;;;;;;5071624;28;20498;-82
2022/08/13 04:23:39;;;;;;;4.32;4.00;;;;;;;;;;5072051;28;20424;-84
2022/08/13 04:26:06;;;;;;;5.18;4.03;;;;;;;;;;5073186;28;20425;-80
2022/08/13 04:28:34;;;;;;;5.03;4.50;;;;;;;;;;5067266;28;20409;-80
2022/08/13 04:31:00;;;;;;;5.35;4.85;;;;;;;;;;5068435;28;20429;-82
2022/08/13 04:33:27;;;;;;;7.75;5.30;;;;;;;;;;5066191;28;20510;-80
2022/08/13 04:35:53;;;;;;;7.00;4.90;;;;;;;;;;5057774;28;20429;-82
2022/08/13 04:38:21;;;;;;;6.53;5.20;;;;;;;;;;5072533;28;20440;-82
2022/08/13 04:40:48;;;;;;;6.40;4.47;;;;;;;;;;5067817;28;20422;-80
2022/08/13 04:43:15;;;;;;;5.72;4.60;;;;;;;;;;5070973;28;20435;-80
2022/08/13 04:45:43;;;;;;;5.00;4.50;;;;;;;;;;5069441;28;20427;-80
2022/08/13 04:48:12;;;;;;;5.03;4.60;;;;;;;;;;5067418;28;20433;-82
2022/08/13 04:50:39;;;;;;;6.18;5.07;;;;;;;;;;5068874;28;20421;-87
2022/08/13 04:53:08;;;;;;;5.40;4.80;;;;;;;;;;5069178;28;20461;-80
2022/08/13 04:55:36;;;;;;;5.47;4.90;;;;;;;;;;5071257;28;20437;-81
2022/08/13 04:58:02;;;;;;;7.75;4.65;;;;;;;;;;5069589;28;20594;-81
2022/08/13 05:00:32;;;;;;;5.97;5.15;;;;;;;;;;5070540;28;20422;-82
2022/08/13 05:03:06;;;;;;;4.88;4.38;;;;;;;;;;5071213;28;20433;-85
2022/08/13 05:05:33;;;;;;;5.57;5.05;;;;;;;;;;5068560;28;20420;-81
2022/08/13 05:07:59;;;;;;;5.53;4.80;;;;;;;;;;5069143;28;20873;-81
2022/08/13 05:10:26;;;;;;;6.47;5.00;;;;;;;;;;5071341;28;20431;-83
2022/08/13 05:12:52;;;;;;;6.55;5.20;;;;;;;;;;5070378;28;20943;-82
2022/08/13 05:15:18;;;;;;;5.17;4.77;;;;;;;;;;5070091;28;20421;-82
2022/08/13 05:17:45;;;;;;;5.43;4.70;;;;;;;;;;5072722;28;20432;-82
2022/08/13 05:20:13;;;;;;;5.15;4.75;;;;;;;;;;5066418;28;20440;-79
2022/08/13 05:22:39;;;;;;;12.20;5.13;;;;;;;;;;5068978;28;20462;-81
2022/08/13 05:25:06;;;;;;;7.90;4.75;;;;;;;;;;5068424;28;20774;-84
2022/08/13 05:27:32;;;;;;;7.17;4.40;;;;;;;;;;5068327;28;20471;-80
2022/08/13 05:30:00;;;;;;;6.03;4.80;;;;;;;;;;5063494;28;20431;-80
2022/08/13 05:32:28;;;;;;;5.32;4.82;;;;;;;;;;5069904;28;20453;-81
2022/08/13 05:34:54;;;;;;;4.97;4.47;;;;;;;;;;5066114;28;20901;-81
2022/08/13 05:37:22;;;;;;;4.33;3.93;;;;;;;;;;5065765;28;20431;-81
2022/08/13 05:39:48;;;;;;;5.15;4.65;;;;;;;;;;5066282;28;20421;-81
2022/08/13 05:42:15;;;;;;;8.50;4.77;;;;;;;;;;5067747;28;20414;-82
2022/08/13 05:44:42;;;;;;;6.07;4.90;;;;;;;;;;5069041;28;20432;-79
2022/08/13 05:47:08;;;;;;;5.20;4.70;;;;;;;;;;5071281;28;20780;-82
2022/08/13 05:49:35;;;;;;;5.35;4.70;;;;;;;;;;5070009;28;20431;-80
2022/08/13 05:52:02;;;;;;;6.90;4.72;;;;;;;;;;5069236;28;20436;-83
2022/08/13 05:54:31;;;;;;;5.03;4.63;;;;;;;;;;5068586;28;20427;-83
2022/08/13 05:56:57;;;;;;;5.72;5.22;;;;;;;;;;5068955;28;20460;-82
2022/08/13 06:04:52;;;;;;;5.85;4.70;;;;;;;;;;5069456;28;20432;-82
2022/08/13 06:07:19;;;;;;;6.70;4.55;;;;;;;;;;5069732;28;20428;-83
2022/08/13 06:09:46;;;;;;;7.50;4.50;;;;;;;;;;5070180;28;20420;-81
2022/08/13 06:12:14;;;;;;;6.43;5.25;;;;;;;;;;5065550;28;20431;-83
2022/08/13 06:14:41;;;;;;;7.47;5.03;;;;;;;;;;5066508;28;20429;-80
2022/08/13 06:17:08;;;;;;;5.20;4.50;;;;;;;;;;5063756;28;20812;-83
2022/08/13 06:19:35;;;;;;;5.00;4.50;;;;;;;;;;5065655;28;20431;-80
2022/08/13 06:22:04;;;;;;;6.43;4.30;;;;;;;;;;5063766;28;20429;-80
2022/08/13 06:24:32;;;;;;;6.40;4.57;;;;;;;;;;5065325;28;20416;-79
2022/08/13 06:27:00;;;;;;;6.00;3.90;;;;;;;;;;5065620;28;20439;-80
2022/08/13 06:29:29;;;;;;;4.80;4.40;;;;;;;;;;5064608;28;20425;-80
2022/08/13 06:31:57;;;;;;;7.22;4.00;;;;;;;;;;5065423;28;20431;-83
2022/08/13 06:34:24;;;;;;;5.00;4.50;;;;;;;;;;5063736;28;20419;-81
2022/08/13 06:36:51;;;;;;;6.07;4.30;;;;;;;;;;5062924;28;20440;-81
2022/08/13 06:39:20;;;;;;;5.20;4.30;;;;;;;;;;5063880;28;20417;-82
2022/08/13 06:41:47;;;;;;;4.30;3.90;;;;;;;;;;5063910;28;20430;-80
2022/08/13 06:44:15;;;;;;;5.00;3.90;;;;;;;;;;5063089;28;20417;-82
2022/08/13 06:46:42;;;;;;;7.60;4.25;;;;;;;;;;5064849;28;20735;-81
2022/08/13 06:49:09;;;;;;;4.80;4.22;;;;;;;;;;5060614;28;20412;-81
2022/08/13 06:51:36;;;;;;;4.72;4.18;;;;;;;;;;5062964;28;20439;-84
2022/08/13 06:54:03;;;;;;;5.57;3.80;;;;;;;;;;5063143;28;20401;-80
2022/08/13 06:56:31;;;;;;;5.90;3.70;;;;;;;;;;5064451;28;20862;-83
2022/08/13 06:58:58;;;;;;;4.68;4.00;;;;;;;;;;5064016;28;20934;-82
2022/08/13 07:01:26;;;;;;;4.43;3.97;;;;;;;;;;5064932;28;20428;-82
2022/08/13 07:03:53;;;;;;;7.70;3.80;;;;;;;;;;5061738;28;20431;-81
2022/08/13 07:06:22;;;;;;;5.78;4.20;;;;;;;;;;5067250;28;20428;-80
2022/08/13 07:08:54;;;;;;;6.60;4.10;;;;;;;;;;5065484;28;20447;-81
2022/08/13 07:11:25;;;;;;;4.60;3.40;;;;;;;;;;5062773;28;20431;-82
2022/08/13 07:13:52;;;;;;;4.78;3.85;;;;;;;;;;5062017;28;20429;-81
2022/08/13 07:16:21;;;;;;;10.40;5.88;;;;;;;;;;5061926;28;20477;-79
2022/08/13 07:18:50;;;;;;;10.68;6.10;;;;;;;;;;5064807;28;20415;-81
2022/08/13 07:21:17;;;;;;;9.20;5.50;;;;;;;;;;5067068;28;20429;-82
2022/08/13 07:23:45;;;;;;;10.32;5.43;;;;;;;;;;5062259;28;20510;-83
2022/08/13 07:26:12;;;;;;;7.65;6.10;;;;;;;;;;5059705;28;20526;-82
2022/08/13 07:28:39;;;;;;;6.25;5.18;;;;;;;;;;5063174;28;20449;-83
2022/08/13 07:31:06;;;;;;;5.97;4.85;;;;;;;;;;5064902;28;20905;-79
2022/08/13 07:33:34;;;;;;;14.48;6.00;;;;;;;;;;5065517;28;20566;-80
2022/08/13 07:36:04;;;;;;;8.13;5.40;;;;;;;;;;5063857;28;20470;-80
2022/08/13 07:38:31;;;;;;;6.40;4.70;;;;;;;;;;5063889;28;20448;-82
2022/08/13 07:40:58;;;;;;;5.13;3.80;;;;;;;;;;5064400;28;20825;-81
2022/08/13 07:43:24;;;;;;;5.67;3.63;;;;;;;;;;5064669;28;20408;-80
2022/08/13 07:46:00;;;;;;;4.10;3.70;;;;;;;;;;5063312;28;20803;-82
2022/08/13 07:48:27;;;;;;;6.30;3.50;;;;;;;;;;5063746;28;21674;-81
2022/08/13 07:50:53;;;;;;;5.55;3.88;;;;;;;;;;5061308;28;20436;-82
2022/08/13 07:53:23;;;;;;;9.05;3.95;;;;;;;;;;5062814;28;20423;-83
2022/08/13 07:55:50;;;;;;;6.10;4.20;;;;;;;;;;5063965;28;20428;-81
2022/08/13 07:58:17;;;;;;;6.18;4.00;;;;;;;;;;5060642;28;20417;-82
2022/08/13 08:00:45;;;;;;;5.32;4.18;;;;;;;;;;5066487;28;20833;-81
2022/08/13 08:03:12;;;;;;;5.82;3.53;;;;;;;;;;5066361;28;20518;-81
2022/08/13 08:05:43;;;;;;;4.18;3.65;;;;;;;;;;5066069;28;20425;-80
2022/08/13 08:08:11;;;;;;;6.30;4.13;;;;;;;;;;5067244;28;20419;-80
2022/08/13 08:10:40;;;;;;;5.45;3.65;;;;;;;;;;5066936;28;20431;-82
2022/08/13 08:13:07;;;;;;;4.40;3.47;;;;;;;;;;5067940;28;20437;-80
2022/08/13 08:15:35;;;;;;;5.60;3.67;;;;;;;;;;5066615;28;20508;-81
2022/08/13 08:18:02;;;;;;;4.45;3.63;;;;;;;;;;5067172;28;20774;-83
2022/08/13 08:20:28;;;;;;;5.03;3.60;;;;;;;;;;5065858;28;20428;-82
2022/08/13 08:22:55;;;;;;;3.28;2.97;;;;;;;;;;5067022;28;20422;-80
2022/08/13 08:25:22;;;;;;;5.45;3.72;;;;;;;;;;5064401;28;20436;-82
2022/08/13 08:27:50;;;;;;;4.30;3.00;;;;;;;;;;5067204;28;20411;-82
2022/08/13 08:30:17;;;;;;;4.53;3.38;;;;;;;;;;5064114;28;20806;-80
2022/08/13 08:32:47;;;;;;;4.05;3.10;;;;;;;;;;5065309;28;20437;-80
2022/08/13 08:35:16;;;;;;;3.20;3.00;;;;;;;;;;5067997;28;20502;-83
2022/08/13 08:43:12;;;;;;;3.40;3.05;;;;;;;;;;5066321;28;20833;-84
2022/08/13 08:45:40;;;;;;;3.43;3.10;;;;;;;;;;5064470;28;20429;-82
2022/08/13 08:48:09;;;;;;;3.92;3.10;;;;;;;;;;5066999;28;20427;-80
2022/08/13 08:50:36;;;;;;;4.03;3.03;;;;;;;;;;5060416;28;20842;-81
2022/08/13 08:53:21;;;;;;;3.00;2.80;;;;;;;;;;5068030;28;20446;-80
2022/08/13 08:55:50;;;;;;;4.75;2.63;;;;;;;;;;5065507;28;23052;-80
2022/08/13 08:58:19;;;;;;;6.40;2.70;;;;;;;;;;5068238;28;20795;-81
2022/08/13 09:00:47;;;;;;;3.60;3.00;;;;;;;;;;5064840;28;20420;-81
2022/08/13 09:03:19;;;;;;;5.40;3.10;;;;;;;;;;5066744;28;20937;-82
2022/08/13 09:05:48;;;;;;;3.00;2.70;;;;;;;;;;5066621;28;20933;-83
2022/08/13 09:08:15;;;;;;;5.20;2.63;;;;;;;;;;5064631;28;20790;-80
2022/08/13 09:10:44;;;;;;;3.45;2.55;;;;;;;;;;5065465;28;20433;-80
2022/08/13 09:13:12;;;;;;;3.43;2.83;;;;;;;;;;5067087;28;20527;-82
2022/08/13 09:15:40;;;;;;;3.50;2.70;;;;;;;;;;5067666;28;20422;-80
2022/08/13 09:18:07;;;;;;;2.92;2.70;;;;;;;;;;5066880;28;20437;-81
2022/08/13 09:20:34;;;;;;;4.00;2.60;;;;;;;;;;5064473;28;20427;-81
2022/08/13 09:23:03;;;;;;;5.30;3.23;;;;;;;;;;5064468;28;20426;-81
2022/08/13 09:25:29;;;;;;;6.90;3.30;;;;;;;;;;5065254;28;20424;-82
2022/08/13 09:27:56;;;;;;;4.13;2.70;;;;;;;;;;5064164;28;20436;-82
2022/08/13 09:30:23;;;;;;;5.35;3.28;;;;;;;;;;5065553;28;20440;-82
2022/08/13 09:32:53;;;;;;;3.33;2.72;;;;;;;;;;5064556;28;20417;-82
2022/08/13 09:35:19;;;;;;;3.80;3.10;;;;;;;;;;5063915;28;20929;-82
2022/08/13 09:37:50;;;;;;;3.30;3.00;;;;;;;;;;5065683;28;20431;-82
2022/08/13 09:40:17;;;;;;;6.20;3.50;;;;;;;;;;5065495;28;20498;-81
2022/08/13 09:42:46;;;;;;;6.80;3.15;;;;;;;;;;5065522;28;20788;-82
2022/08/13 09:45:15;;;;;;;4.70;3.15;;;;;;;;;;5066202;28;20427;-81
2022/08/13 09:47:42;;;;;;;4.88;3.17;;;;;;;;;;5063205;28;20435;-80
2022/08/13 09:50:10;;;;;;;4.78;3.05;;;;;;;;;;5061801;28;20575;-81
2022/08/13 09:52:37;;;;;;;3.40;3.10;;;;;;;;;;5061143;28;20419;-81
2022/08/13 09:55:05;;;;;;;4.57;3.07;;;;;;;;;;5061387;28;20417;-81
2022/08/13 09:57:31;;;;;;;4.72;3.60;;;;;;;;;;5063475;28;20804;-81
2022/08/13 09:59:57;;;;;;;3.40;3.07;;;;;;;;;;5060247;28;20419;-81
2022/08/13 10:02:24;;;;;;;3.40;2.95;;;;;;;;;;5061463;28;20420;-81
2022/08/13 10:04:55;;;;;;;4.47;3.88;;;;;;;;;;5060964;28;20434;-82
2022/08/13 10:07:22;;;;;;;3.80;3.40;;;;;;;;;;5063427;28;20416;-83
2022/08/13 10:09:49;;;;;;;3.60;3.20;;;;;;;;;;5062281;28;20481;-82
2022/08/13 10:12:16;;;;;;;3.92;3.50;;;;;;;;;;5062367;28;20515;-81
2022/08/13 10:14:42;;;;;;;9.45;8.65;;;;;;;;;;5063164;28;20416;-81
2022/08/13 10:17:08;;;;;;;3.83;3.47;;;;;;;;;;5064311;28;20437;-81
2022/08/13 10:19:34;;;;;;;4.32;3.40;;;;;;;;;;5062682;28;20424;-81
2022/08/13 10:22:01;;;;;;;3.85;3.45;;;;;;;;;;5062665;28;20433;-82
2022/08/13 10:24:30;;;;;;;5.32;3.88;;;;;;;;;;5063042;28;20437;-84
2022/08/13 10:26:56;;;;;;;5.80;4.00;;;;;;;;;;5064822;28;20474;-84
2022/08/13 10:29:24;;;;;;;5.47;3.78;;;;;;;;;;5063316;28;20418;-83
2022/08/13 10:31:50;;;;;;;3.77;3.50;;;;;;;;;;5062453;28;20431;-80
2022/08/13 10:34:22;;;;;;;5.07;3.53;;;;;;;;;;5057597;28;20420;-81
2022/08/13 10:36:49;;;;;;;3.80;3.40;;;;;;;;;;5061833;28;20949;-80
2022/08/13 10:39:17;;;;;;;4.03;3.72;;;;;;;;;;5058449;28;20911;-82
2022/08/13 10:41:44;;;;;;;4.82;3.83;;;;;;;;;;5062708;28;20423;-85
2022/08/13 10:44:13;;;;;;;3.90;3.60;;;;;;;;;;5060500;28;20419;-82
2022/08/13 10:46:43;;;;;;;4.10;3.70;;;;;;;;;;5062648;28;20609;-80
2022/08/13 10:49:13;;;;;;;5.40;3.80;;;;;;;;;;5060864;28;20862;-80
2022/08/13 10:51:39;;;;;;;3.70;3.40;;;;;;;;;;5063913;28;20457;-82
2022/08/13 10:54:07;;;;;;;4.60;4.20;;;;;;;;;;5064642;28;20421;-82
2022/08/13 10:56:34;;;;;;;4.78;3.60;;;;;;;;;;5064089;28;20425;-83
2022/08/13 10:59:04;;;;;;;4.72;3.80;;;;;;;;;;5064419;28;20486;-81
2022/08/13 11:01:30;;;;;;;4.30;3.90;;;;;;;;;;5066204;28;20916;-81
2022/08/13 11:04:00;;;;;;;4.20;3.90;;;;;;;;;;5064043;28;20447;-80
2022/08/13 11:06:27;;;;;;;4.70;4.30;;;;;;;;;;5047686;28;20852;-82
2022/08/13 11:08:57;;;;;;;5.35;4.30;;;;;;;;;;5063300;28;20429;-81
2022/08/13 11:11:24;;;;;;;4.60;3.90;;;;;;;;;;5070071;28;20460;-84
2022/08/13 11:13:50;;;;;;;4.18;3.78;;;;;;;;;;5067605;28;20425;-83
2022/08/13 11:19:11;;;;;;;4.28;3.70;;;;;;;;;;5065671;28;20443;-80
2022/08/13 11:21:38;;;;;;;5.68;4.20;;;;;;;;;;5062830;28;20983;-83
2022/08/13 11:24:04;;;;;;;4.20;3.90;;;;;;;;;;5063339;28;20411;-80
2022/08/13 11:26:31;;;;;;;4.53;3.80;;;;;;;;;;5060652;28;20433;-80
2022/08/13 11:28:57;;;;;;;4.70;3.92;;;;;;;;;;5061931;28;20435;-81
2022/08/13 11:31:26;;;;;;;4.30;3.90;;;;;;;;;;5063111;28;20476;-81
2022/08/13 11:33:54;;;;;;;4.50;4.10;;;;;;;;;;5060883;28;20451;-81
2022/08/13 11:36:20;;;;;;;4.70;3.70;;;;;;;;;;5066919;28;20440;-80
2022/08/13 11:38:47;;;;;;;4.68;4.28;;;;;;;;;;5066117;28;20403;-81
2022/08/13 11:41:13;;;;;;;4.80;3.90;;;;;;;;;;5067131;28;20460;-81
2022/08/13 11:43:39;;;;;;;4.38;3.97;;;;;;;;;;5070156;28;20565;-82
2022/08/13 11:46:06;;;;;;;4.40;4.00;;;;;;;;;;5067003;28;20427;-81
2022/08/13 11:48:34;;;;;;;5.00;3.83;;;;;;;;;;5065797;28;20442;-82
2022/08/13 11:51:01;;;;;;;4.90;4.10;;;;;;;;;;5066844;28;20518;-82
2022/08/13 11:53:27;;;;;;;4.50;4.10;;;;;;;;;;5065957;28;20436;-80
2022/08/13 11:55:53;;;;;;;5.20;4.47;;;;;;;;;;5069477;28;20423;-82
2022/08/13 11:58:20;;;;;;;4.45;4.00;;;;;;;;;;5069314;28;20417;-83
2022/08/13 12:00:46;;;;;;;5.22;4.28;;;;;;;;;;5067645;28;20460;-83
2022/08/13 12:03:13;;;;;;;4.30;3.90;;;;;;;;;;5066753;28;20427;-82
2022/08/13 12:05:41;;;;;;;4.50;4.10;;;;;;;;;;5064591;28;20429;-82
2022/08/13 12:08:13;;;;;;;4.60;4.20;;;;;;;;;;5067738;28;20439;-81
2022/08/13 12:10:39;;;;;;;4.68;4.28;;;;;;;;;;5065821;28;20421;-82
2022/08/13 12:13:05;;;;;;;4.80;4.30;;;;;;;;;;5067759;28;20423;-82
2022/08/13 12:15:32;;;;;;;5.93;4.00;;;;;;;;;;5064390;28;20425;-81
2022/08/13 12:17:58;;;;;;;5.13;4.63;;;;;;;;;;5066253;28;20440;-80
2022/08/13 12:20:25;;;;;;;4.55;4.22;;;;;;;;;;5066982;28;20423;-81
2022/08/13 12:22:53;;;;;;;5.25;4.75;;;;;;;;;;5066405;28;20429;-81
2022/08/13 12:25:20;;;;;;;5.27;4.50;;;;;;;;;;5066679;28;20419;-80
2022/08/13 12:27:47;;;;;;;5.47;4.18;;;;;;;;;;5065310;28;20443;-80
2022/08/13 12:30:13;;;;;;;5.05;4.45;;;;;;;;;;5065138;28;20425;-84
2022/08/13 12:32:40;;;;;;;6.30;4.45;;;;;;;;;;5067072;28;20431;-81
2022/08/13 12:35:07;;;;;;;4.72;4.22;;;;;;;;;;5065643;28;20779;-79
2022/08/13 12:37:33;;;;;;;5.20;4.70;;;;;;;;;;5066347;28;20431;-83
2022/08/13 12:40:01;;;;;;;6.20;4.50;;;;;;;;;;5065177;28;20425;-82
2022/08/13 12:42:28;;;;;;;4.72;4.43;;;;;;;;;;5065382;28;20515;-82
2022/08/13 12:44:55;;;;;;;5.50;5.00;;;;;;;;;;5064563;28;20421;-83
2022/08/13 12:47:21;;;;;;;7.28;5.10;;;;;;;;;;5066010;28;20436;-83
2022/08/13 12:49:47;;;;;;;5.10;4.70;;;;;;;;;;5064445;28;20423;-83
2022/08/13 12:52:15;;;;;;;5.20;4.70;;;;;;;;;;5065757;28;20933;-83
2022/08/13 12:54:41;;;;;;;5.10;4.70;;;;;;;;;;5065848;28;20427;-83
2022/08/13 12:57:09;;;;;;;6.80;4.95;;;;;;;;;;5064738;28;20425;-81
2022/08/13 12:59:35;;;;;;;5.75;4.55;;;;;;;;;;5062986;28;20436;-81
2022/08/13 13:02:02;;;;;;;4.90;4.50;;;;;;;;;;5064096;28;20446;-81
2022/08/13 13:04:28;;;;;;;5.20;4.70;;;;;;;;;;5065299;28;20423;-81
2022/08/13 13:06:54;;;;;;;5.30;4.90;;;;;;;;;;5064952;28;20427;-81
2022/08/13 13:09:22;;;;;;;5.10;4.70;;;;;;;;;;5065689;28;20527;-81
2022/08/13 13:11:48;;;;;;;7.90;5.30;;;;;;;;;;5065772;28;20435;-82
2022/08/13 13:14:16;;;;;;;5.85;4.47;;;;;;;;;;5065018;28;20437;-81
2022/08/13 13:16:43;;;;;;;5.22;4.82;;;;;;;;;;5065131;28;20957;-81
2022/08/13 13:19:10;;;;;;;5.30;4.60;;;;;;;;;;5062204;28;20405;-81
2022/08/13 13:21:37;;;;;;;5.43;4.90;;;;;;;;;;5063969;28;20430;-80
2022/08/13 13:24:06;;;;;;;7.40;5.10;;;;;;;;;;5061989;28;20378;-82
2022/08/13 13:26:33;;;;;;;4.97;4.57;;;;;;;;;;5061669;28;20992;-82
2022/08/13 13:28:59;;;;;;;5.23;4.73;;;;;;;;;;5062075;28;20934;-82
2022/08/13 13:31:27;;;;;;;5.50;4.80;;;;;;;;;;5063965;28;21779;-81
2022/08/13 13:33:54;;;;;;;5.60;5.20;;;;;;;;;;5061668;28;20435;-82
2022/08/13 13:36:20;;;;;;;5.85;5.35;;;;;;;;;;5066179;28;20429;-83
2022/08/13 13:38:47;;;;;;;5.82;5.32;;;;;;;;;;5066324;28;20431;-81
2022/08/13 13:41:13;;;;;;;6.18;5.53;;;;;;;;;;5063520;28;20786;-81
2022/08/13 13:43:39;;;;;;;6.10;5.20;;;;;;;;;;5067681;28;20428;-83
2022/08/13 13:46:06;;;;;;;5.93;5.10;;;;;;;;;;5066029;28;20421;-79
2022/08/13 13:48:36;;;;;;;6.68;5.40;;;;;;;;;;5063442;28;20431;-82
2022/08/13 13:51:05;;;;;;;6.75;6.15;;;;;;;;;;5064013;28;20451;-82
2022/08/13 13:53:32;;;;;;;6.35;5.40;;;;;;;;;;5063895;28;20435;-80
2022/08/13 13:55:59;;;;;;;5.70;5.20;;;;;;;;;;5062404;28;20451;-82
2022/08/13 13:58:26;;;;;;;6.10;5.60;;;;;;;;;;5063608;28;20524;-81
2022/08/13 14:00:54;;;;;;;7.20;6.50;;;;;;;;;;5063485;28;20425;-80
2022/08/13 14:03:23;;;;;;;6.53;6.00;;;;;;;;;;5058955;28;20504;-82
2022/08/13 14:05:51;;;;;;;5.90;5.40;;;;;;;;;;5062666;28;20449;-81
2022/08/13 14:08:18;;;;;;;6.22;5.63;;;;;;;;;;5062054;28;20423;-82
2022/08/13 14:10:45;;;;;;;6.25;5.32;;;;;;;;;;5062626;28;20512;-82
2022/08/13 14:13:11;;;;;;;6.15;5.55;;;;;;;;;;5062952;28;20419;-81
2022/08/13 14:15:38;;;;;;;6.20;5.60;;;;;;;;;;5063566;28;20472;-79
2022/08/13 14:18:06;;;;;;;7.15;5.70;;;;;;;;;;5062257;28;20434;-82
2022/08/13 14:20:33;;;;;;;7.07;6.38;;;;;;;;;;5062266;28;20422;-82
2022/08/13 14:23:01;;;;;;;7.13;6.30;;;;;;;;;;5063080;28;20416;-82
2022/08/13 14:25:30;;;;;;;7.03;6.43;;;;;;;;;;5063899;28;20422;-81
2022/08/13 14:27:56;;;;;;;7.50;6.80;;;;;;;;;;5064413;28;20484;-81
2022/08/13 14:30:24;;;;;;;6.70;6.10;;;;;;;;;;5063336;28;20791;-82
2022/08/13 14:32:53;;;;;;;6.40;5.90;;;;;;;;;;5064814;28;20435;-81
2022/08/13 14:35:20;;;;;;;7.07;6.50;;;;;;;;;;5060875;28;20433;-79
2022/08/13 14:37:48;;;;;;;7.00;6.40;;;;;;;;;;5062593;28;20420;-80
2022/08/13 14:40:17;;;;;;;6.70;6.00;;;;;;;;;;5062566;28;20430;-81
2022/08/13 14:42:45;;;;;;;7.73;5.70;;;;;;;;;;5064238;28;20442;-82
2022/08/13 14:47:57;;;;;;;7.53;6.00;;;;;;;;;;5062416;28;20520;-80
2022/08/13 14:50:25;;;;;;;8.07;6.50;;;;;;;;;;5062055;28;20426;-83
2022/08/13 14:52:52;;;;;;;10.77;6.68;;;;;;;;;;5064122;28;20891;-79
2022/08/13 14:55:21;;;;;;;6.80;6.10;;;;;;;;;;5062949;28;20939;-82
2022/08/13 14:57:48;;;;;;;6.80;6.30;;;;;;;;;;5065488;28;20450;-81
2022/08/13 15:00:15;;;;;;;7.32;6.63;;;;;;;;;;5062783;28;20427;-83
2022/08/13 15:02:42;;;;;;;6.60;6.10;;;;;;;;;;5061896;28;20884;-83
2022/08/13 15:05:10;;;;;;;6.47;5.88;;;;;;;;;;5064055;28;20427;-82
2022/08/13 15:07:42;;;;;;;6.70;6.10;;;;;;;;;;5062456;28;20440;-81
2022/08/13 15:10:09;;;;;;;6.72;5.82;;;;;;;;;;5067094;28;20419;-83
2022/08/13 15:12:40;;;;;;;7.32;6.72;;;;;;;;;;5068249;28;20469;-82